Ana Sayfa
METAR-TAF:

METAR-TAF

Havaalanları :

Mae Sot, Tayland

Enlem: 16-40N, Boylam: 098-33E, yükseklik: 196 m

Güncel hava durumu gözlemi

Rapor saat 04:00 UTC de 48 dakika önce yapıldı.
Rüzgar batıdan 9 kt, güneybatı ve batı/kuzeybatı arasında değişken
Sıcaklık 33°C
Nem 46%
Basınç 1011 hPa
Görüş mesafesi 10 km veya daha fazla
2500 ft yükseklikte az bulutlu

METAR: VTPM 190400Z 27009KT 230V300 9999 FEW025 33/20 Q1011 NOSIG

Saat: 11:48 (04:48 UTC)

Tahmin

Rapor saat 23:00 UTC de 5 saat ve 48 dakika önce yapıldı.
Ayın 19'si saat 00 UTC'den ayın 19'si saat 24 UTC'ye kadar geçerli Tahmin
Rüzgar batıdan 7 kt
Görüş mesafesi: 6000 m
Dönüşüyor
ayın 19'si saat 02 UTC'den ayın 19'si saat 04 UTC'ye kadar
Görüş mesafesi 10 km veya daha fazla
2500 ft yükseklikte az bulutlu

TAF: VTPM 182300Z 1900/1924 27007KT 6000 NSC BECMG 1902/1904 9999 FEW025

4.000'den fazla havaalanı için hava durumu gözlemleri ve tahminleri (METAR ve TAF raporları).

Kullanılabilir istasyonlar harita üzerinde sarı ve kırmızı noktalarla gösterilir.

İstasyonun adını görmek için fareyi noktanın üzerinde gezdirin.

Sonrasında hava gözlem ve tahminlerini görmek için tıklayın.

Haritayı değiştirmek için: yaklaştırmak için siyah artı işaretli yeşil düğmeye ve uzaklaştırmak için de eksi işaretli düğmeye hızla tıklayın; bitişik haritalar için yeşil okları kullanın.


METAR-TAF: